Home > Products > Valid Products > TAF

000
FTUS43 KICT 040520
TAFSLN
TAF
KSLN 040520Z 0406/0506 12006KT P6SM SKC
     FM040800 15006KT P6SM SKC
     FM041400 17010KT P6SM SCT040 SCT100 BKN200
     FM050000 14010KT P6SM BKN080=



000
FTUS43 KICT 040520
TAFHUT
TAF
KHUT 040520Z 0406/0506 10005KT P6SM SCT040
     FM041000 13007KT P6SM SKC
     FM041500 16010KT P6SM SCT040 BKN200
     FM050000 15010KT P6SM SCT040 BKN100=



000
FTUS43 KICT 040520
TAFCNU
TAF
KCNU 040520Z 0406/0506 07005KT P6SM BKN050
     FM041400 10008KT P6SM SCT040
     FM041900 14008KT P6SM SCT040
     FM050200 12005KT P6SM BKN040=



000
FTUS43 KICT 040520
TAFICT
TAF
KICT 040520Z 0406/0506 10004KT P6SM FEW250
     FM041400 14013KT P6SM SCT040 SCT200
     FM050000 15010KT P6SM SCT100 BKN200=



000
FTUS43 KICT 040520
TAFRSL
TAF
KRSL 040520Z 0406/0506 13007KT P6SM SKC
     FM041200 17010KT P6SM SCT080 BKN200
     FM042000 17015G22KT P6SM BKN200
     FM050100 15010KT P6SM BKN080=



000
FTUS43 KICT 032323
TAFCNU
TAF
KCNU 032323Z 0400/0424 04010KT P6SM BKN050
     FM041400 10008KT P6SM SCT040
     FM041900 15008KT P6SM SCT040=



000
FTUS43 KICT 032323
TAFHUT
TAF
KHUT 032323Z 0400/0424 05010KT P6SM SCT040
     FM040300 10005KT P6SM SCT040
     FM041000 13007KT P6SM SKC
     FM041500 16010KT P6SM SCT040 BKN200=



000
FTUS43 KICT 032323
TAFSLN
TAF
KSLN 032323Z 0400/0424 05009KT P6SM SCT050
     FM040200 10007KT P6SM SKC
     FM040800 15006KT P6SM SKC
     FM041400 17010KT P6SM SCT030 SCT100 BKN200=



000
FTUS43 KICT 032323
TAFRSL
TAF
KRSL 032323Z 0400/0424 07010KT P6SM SCT040
     FM040600 13007KT P6SM SKC
     FM041200 17010KT P6SM SCT100 BKN200=



000
FTUS43 KICT 032323
TAFICT
TAF
KICT 032323Z 0400/0424 07010KT P6SM SCT040
     FM041000 10004KT P6SM SKC
     FM041400 15014KT P6SM SCT040 SCT200=



000
FTUS43 KICT 032105 AAB
TAFCNU
TAF AMD
KCNU 032105Z 0321/0418 01005KT P6SM SCT040 SCT080
     FM040200 05009KT P6SM BKN080=



000
FTUS43 KICT 031945 AAA
TAFHUT
TAF AMD
KHUT 031945Z 0320/0418 04009KT P6SM BKN040
     FM040200 10007KT P6SM SCT040 BKN200
     FM040800 13007KT P6SM SKC=



000
FTUS43 KICT 031829 AAA
TAFCNU
TAF AMD
KCNU 031829Z 0318/0418 VRB03KT P6SM VCTS SCT030 BKN050CB
      TEMPO 0318/0322 3SM TSRA BKN028CB
     FM032200 05009KT P6SM VCTS BKN050CB
     FM040200 05009KT P6SM BKN080=



000
FTUS43 KICT 031827 AAA
TAFICT
TAF AMD
KICT 031827Z 0318/0418 36013KT P6SM BKN035
     FM032300 01009KT P6SM SCT040=



000
FTUS43 KICT 031740
TAFICT
TAF
KICT 031740Z 0318/0418 01013KT P6SM OVC025
     FM032000 36013KT P6SM BKN035
     FM032300 01009KT P6SM SCT040=



000
FTUS43 KICT 031740
TAFSLN
TAF
KSLN 031740Z 0318/0418 04009KT P6SM SCT025 SCT045
     FM032100 04009KT P6SM SKC
     FM040200 10007KT P6SM SKC=



000
FTUS43 KICT 031740
TAFHUT
TAF
KHUT 031740Z 0318/0418 35013KT P6SM SCT025 BKN035
     FM032000 03013KT P6SM SCT040=



000
FTUS43 KICT 031740
TAFRSL
TAF
KRSL 031740Z 0318/0418 02013KT P6SM SCT030
     FM032100 06013KT P6SM SCT040
     FM040200 08007KT P6SM SKC=



000
FTUS43 KICT 031740
TAFCNU
TAF
KCNU 031740Z 0318/0418 01004KT P6SM SCT030 BKN040
     FM032100 05009KT P6SM BKN050
     FM040200 05009KT P6SM BKN080=



000
FTUS43 KICT 031605 AAB
TAFRSL
TAF AMD
KRSL 031605Z 0316/0412 36007KT P6SM BKN022 OVC035
      TEMPO 0316/0320 SCT025 BKN035
     FM032000 03009KT P6SM BKN035
     FM032300 06013KT P6SM SCT040=



000
FTUS43 KICT 031555 AAC
TAFCNU
TAF AMD
KCNU 031555Z 0316/0412 03005KT P6SM SCT020
      TEMPO 0316/0320 BKN022
     FM032000 03013KT P6SM OVC025
     FM040100 07007KT P6SM OVC050=



000
FTUS43 KICT 031540 AAB
TAFICT
TAF AMD
KICT 031540Z 0316/0412 35013KT P6SM OVC015
     FM032000 36013KT P6SM OVC025
     FM032300 01009KT P6SM SCT030=



000
FTUS43 KICT 031440 AAA
TAFSLN
TAF AMD
KSLN 031440Z 0315/0412 36013KT P6SM OVC010
     FM031600 01009KT P6SM BKN018
     FM031800 01013KT P6SM BKN035
     FM032000 04009KT P6SM SCT035=



000
FTUS43 KICT 031432 AAA
TAFRSL
TAF AMD
KRSL 031432Z 0315/0412 35007KT P6SM SCT008 OVC015
     FM031700 01009KT P6SM OVC025
     FM031900 03009KT P6SM BKN035
     FM032100 06013KT P6SM SCT040=



000
FTUS43 KICT 031432 AAA
TAFRSL
TAF AMD
KRSL 031432Z 0315/0412 35007KT P6SM SCT008 OVC015
     FM031700 01009KT P6SM OVC025
     FM031900 03009KT P6SM BKN035
     FM032100 06013KT P6SM SCT040=



000
FTUS43 KICT 031420 AAB
TAFCNU
TAF AMD
KCNU 031420Z 0314/0412 VRB04KT 6SM BR BKN005 OVC015
     FM031800 04007KT P6SM SCT007 OVC015
     FM032000 03013KT P6SM OVC025
     FM040100 07007KT P6SM OVC050=



000
FTUS43 KICT 031353 AAB
TAFICT
TAF AMD
KICT 031353Z 0314/0412 35013KT P6SM SCT010
     FM031430 35013KT P6SM BKN008
     FM031700 35013KT P6SM OVC018
     FM031900 36013KT P6SM OVC035
     FM032200 01009KT P6SM SCT040=



000
FTUS43 KICT 031345 AAA
TAFHUT
TAF AMD
KHUT 031345Z 0314/0412 35013KT 6SM HZ BKN006
     FM031530 35013KT P6SM SCT007 OVC013
     FM031700 36013KT P6SM OVC025
     FM031900 35013KT P6SM OVC035
     FM032100 03013KT P6SM SCT040=



000
FTUS43 KICT 031335 AAA
TAFCNU
TAF AMD
KCNU 031335Z 0314/0412 00000KT 5SM BR SCT002 OVC015
     FM031500 04007KT P6SM OVC025
     FM032000 03013KT P6SM OVC035
     FM040100 07007KT P6SM OVC050=



000
FTUS43 KICT 031135
TAFRSL
TAF
KRSL 031135Z 0312/0412 01009KT 6SM BR BKN009
      TEMPO 0312/0316 4SM BR OVC005
     FM031600 02006KT P6SM FEW025 SCT040
     FM040100 09007KT P6SM FEW035=



000
FTUS43 KICT 031135
TAFSLN
TAF
KSLN 031135Z 0312/0412 30008KT 6SM BR BKN007
      TEMPO 0312/0316 4SM BR OVC004
     FM031600 02006KT P6SM FEW025 SCT040
     FM040100 09007KT P6SM FEW035=



000
FTUS43 KICT 031135
TAFHUT
TAF
KHUT 031135Z 0312/0412 VRB06KT P6SM FEW120
      TEMPO 0313/0317 SCT006 BKN017
     FM031700 36010KT P6SM SCT040
     FM040100 09006KT P6SM FEW015=



000
FTUS43 KICT 031135
TAFICT
TAF
KICT 031135Z 0312/0412 VRB06KT P6SM FEW120
      TEMPO 0313/0317 SCT006 BKN017
     FM031700 36010KT P6SM SCT040
     FM040100 09006KT P6SM FEW015=



000
FTUS43 KICT 031135
TAFRSL
TAF
KRSL 031135Z 0312/0412 01009KT 6SM BR BKN009
      TEMPO 0312/0316 4SM BR OVC005
     FM031600 02006KT P6SM FEW025 SCT040
     FM040100 09007KT P6SM FEW035=



000
FTUS43 KICT 031135
TAFCNU
TAF
KCNU 031135Z 0312/0412 VRB05KT 1/2SM FG BKN003 OVC016
      TEMPO 0312/0316 3SM BR SCT006 BKN016
     FM031600 03008KT P6SM BKN020
     FM040100 07008KT P6SM SCT010=



000
FTUS43 KICT 031135
TAFSLN
TAF
KSLN 031135Z 0312/0412 30008KT 6SM BR BKN007
      TEMPO 0312/0316 4SM BR OVC004
     FM031600 02006KT P6SM FEW025 SCT040
     FM040100 09007KT P6SM FEW035=



000
FTUS43 KICT 031135
TAFCNU
TAF
KCNU 031135Z 0312/0412 VRB05KT 1/2SM FG BKN003 OVC016
      TEMPO 0312/0316 3SM BR SCT006 BKN016
     FM031600 03008KT P6SM BKN020
     FM040100 07008KT P6SM SCT010=



000
FTUS43 KICT 031135
TAFHUT
TAF
KHUT 031135Z 0312/0412 VRB06KT P6SM FEW120
      TEMPO 0313/0317 SCT006 BKN017
     FM031700 36010KT P6SM SCT040
     FM040100 09006KT P6SM FEW015=



000
FTUS43 KICT 031135
TAFICT
TAF
KICT 031135Z 0312/0412 VRB06KT P6SM FEW120
      TEMPO 0313/0317 SCT006 BKN017
     FM031700 36010KT P6SM SCT040
     FM040100 09006KT P6SM FEW015=



000
FTUS43 KICT 030947 AAA
TAFSLN
TAF AMD
KSLN 030947Z 0310/0406 VRB05KT P6SM SCT200
      TEMPO 0310/0314 3SM BR BKN004
     FM031500 01006KT P6SM SCT050
     FM040100 09007KT P6SM SKC=



000
FTUS43 KICT 030900 AAB
TAFCNU
TAF AMD
KCNU 030900Z 0309/0406 VRB05KT 1/2SM FG BKN002
      TEMPO 0309/0312 3SM BR SCT002 BKN010
     FM031200 VRB05KT P6SM BKN150
     FM031500 03008KT P6SM SCT050
     FM040100 07008KT P6SM SCT050=



000
FTUS43 KICT 030831 AAA
TAFCNU
TAF AMD
KCNU 030831Z 0309/0406 VRB05KT 3SM BR VCTS SCT018CB BKN150
      TEMPO 0309/0312 1SM BR SCT002 BKN010
     FM031200 VRB05KT P6SM BKN150
     FM031500 03008KT P6SM SCT050
     FM040100 07008KT P6SM SCT050=



000
FTUS43 KICT 030520
TAFCNU
TAF
KCNU 030520Z 0306/0406 VRB05KT P6SM VCTS SCT050CB BKN150
     FM031000 VRB05KT P6SM BKN150
     FM031500 03008KT P6SM SCT050
     FM040100 07008KT P6SM SCT050=



000
FTUS43 KICT 030520
TAFRSL
TAF
KRSL 030520Z 0306/0406 VRB06KT P6SM SCT200
     FM031500 02006KT P6SM SCT050
     FM040100 09007KT P6SM SKC=



000
FTUS43 KICT 030520
TAFSLN
TAF
KSLN 030520Z 0306/0406 VRB05KT P6SM SCT200
     FM031500 01006KT P6SM SCT050
     FM040100 09007KT P6SM SKC=



000
FTUS43 KICT 030520
TAFCNU
TAF
KCNU 030520Z 0306/0406 VRB05KT 5SM BR VCTS SCT018CB BKN150
     FM031000 VRB05KT P6SM BKN150
     FM031500 03008KT P6SM SCT050
     FM040100 07008KT P6SM SCT050=



000
FTUS43 KICT 030520
TAFRSL
TAF
KRSL 030520Z 0306/0406 VRB06KT P6SM SCT200
     FM031500 02006KT P6SM SCT050
     FM040100 09007KT P6SM SKC=



000
FTUS43 KICT 030520
TAFSLN
TAF
KSLN 030520Z 0306/0406 VRB05KT P6SM SCT200
     FM031500 01006KT P6SM SCT050
     FM040100 09007KT P6SM SKC=



000
FTUS43 KICT 030520
TAFCNU
TAF
KCNU 030520Z 0306/0406 VRB05KT 5SM BR VCTS SCT018CB BKN150
     FM031000 VRB05KT P6SM BKN150
     FM031500 03008KT P6SM SCT050
     FM040100 07008KT P6SM SCT050=



000
FTUS43 KICT 030520
TAFICT
TAF
KICT 030520Z 0306/0406 VRB06KT P6SM FEW120
     FM031500 36010KT P6SM SCT050
     FM040100 09006KT P6SM SKC=



000
FTUS43 KICT 030520
TAFHUT
TAF
KHUT 030520Z 0306/0406 VRB05KT P6SM FEW120
     FM031500 36010KT P6SM SCT050
     FM040100 08008KT P6SM SKC=



000
FTUS43 KICT 030520
TAFICT
TAF
KICT 030520Z 0306/0406 VRB06KT P6SM FEW120
     FM031500 36010KT P6SM SCT050
     FM040100 09006KT P6SM SKC=



000
FTUS43 KICT 030520
TAFHUT
TAF
KHUT 030520Z 0306/0406 VRB05KT P6SM FEW120
     FM031500 36010KT P6SM SCT050
     FM040100 08008KT P6SM SKC=



000
FTUS43 KICT 030150 AAA
TAFSLN
TAF AMD
KSLN 030150Z 0302/0324 27008KT P6SM VCTS BKN100CB
      TEMPO 0302/0303 -TSRA
     FM030300 27010KT P6SM BKN100
     FM030600 VRB03KT P6SM SCT250=



000
FTUS43 KICT 022322
TAFICT
TAF
KICT 022322Z 0300/0324 VRB06KT P6SM SCT060 BKN120
     FM031800 36009KT P6SM SCT050=



000
FTUS43 KICT 022322
TAFRSL
TAF
KRSL 022322Z 0300/0324 VRB06KT P6SM SCT200=



000
FTUS43 KICT 022322
TAFCNU
TAF
KCNU 022322Z 0300/0324 VRB05KT P6SM VCSH SCT030 BKN100
     FM030300 VRB05KT P6SM SCT060 BKN150
     FM031500 02006KT P6SM SCT050=



000
FTUS43 KICT 022322
TAFHUT
TAF
KHUT 022322Z 0300/0324 VRB05KT P6SM SCT150
     FM031800 36008KT P6SM SCT050=



000
FTUS43 KICT 022322
TAFSLN
TAF
KSLN 022322Z 0300/0324 27008KT P6SM SKC
     FM030600 VRB03KT P6SM SCT250=



000
FTUS43 KICT 022215 AAC
TAFICT
TAF AMD
KICT 022215Z 0222/0318 03009KT P6SM VCTS SCT030 BKN060CB
      TEMPO 0222/0223 -SHRA SCT020 BKN060
     FM022300 03008KT P6SM VCSH SCT060 BKN150
     FM030200 VRB03KT P6SM BKN080
     FM031200 29005KT P6SM SKC=



000
FTUS43 KICT 022016 AAB
TAFICT
TAF AMD
KICT 022016Z 0220/0318 03009KT P6SM VCTS SCT030 BKN060CB
      TEMPO 0220/0222 -SHRA SCT030 BKN060
     FM022300 03008KT P6SM VCSH SCT060 BKN150
     FM030200 VRB03KT P6SM BKN080
     FM031200 29005KT P6SM SKC=



000
FTUS43 KICT 022008 AAA
TAFRSL
TAF AMD
KRSL 022008Z 0220/0318 22007KT P6SM SCT060 BKN150
     FM030000 33008KT P6SM BKN080
     FM030900 VRB03KT P6SM SCT250=



000
FTUS43 KICT 022008 AAA
TAFRSL
TAF AMD
KRSL 022008Z 0220/0318 22007KT P6SM SCT060 BKN150
     FM030000 33008KT P6SM BKN080
     FM030900 VRB03KT P6SM SCT250=



000
FTUS43 KICT 022007 AAA
TAFHUT
TAF AMD
KHUT 022007Z 0220/0318 33009KT P6SM VCTS SCT030 BKN060CB
      TEMPO 0220/0222 -TSRA SCT030 BKN060CB
     FM022200 03008KT P6SM SCT060 BKN150
     FM030200 VRB03KT P6SM BKN080
     FM031200 29005KT P6SM SKC=



000
FTUS43 KICT 021725
TAFICT
TAF
KICT 021725Z 0218/0318 03009KT P6SM VCTS SCT030 BKN060CB
      TEMPO 0218/0221 -SHRA SCT030 BKN060
     FM022200 03008KT P6SM VCSH SCT060 BKN150
     FM030200 VRB03KT P6SM BKN080
     FM031200 29005KT P6SM SKC=



000
FTUS43 KICT 021725
TAFICT
TAF
KICT 021725Z 0218/0318 03009KT P6SM VCTS SCT030 BKN060CB
      TEMPO 0218/0221 -SHRA SCT030 BKN060
     FM022200 03008KT P6SM VCSH SCT060 BKN150
     FM030200 VRB03KT P6SM BKN080
     FM031200 29005KT P6SM SKC=



000
FTUS43 KICT 021725
TAFSLN
TAF
KSLN 021725Z 0218/0318 01009KT P6SM VCTS SCT030 BKN060CB
     FM022300 01007KT P6SM SCT060 BKN150
     FM030000 33008KT P6SM BKN080
     FM030900 VRB03KT P6SM SCT250=



000
FTUS43 KICT 021725
TAFHUT
TAF
KHUT 021725Z 0218/0318 33009KT P6SM VCTS SCT030 BKN060CB
      TEMPO 0218/0221 -TSRA SCT030 BKN060CB
     FM022100 03008KT P6SM SCT060 BKN150
     FM030200 VRB03KT P6SM BKN080
     FM031200 29005KT P6SM SKC=



000
FTUS43 KICT 021725
TAFCNU
TAF
KCNU 021725Z 0218/0318 36008KT P6SM SCT015 BKN250
      TEMPO 0218/0221 BKN015
     FM022100 03009KT P6SM VCSH SCT030 BKN060
     FM030200 03007KT P6SM SCT060 BKN150
     FM030600 VRB03KT P6SM SCT250=



000
FTUS43 KICT 021725
TAFRSL
TAF
KRSL 021725Z 0218/0318 21007KT P6SM VCTS SCT060CB BKN150
     FM030000 33008KT P6SM BKN080
     FM030900 VRB03KT P6SM SCT250=



000
FTUS43 KICT 021725
TAFCNU
TAF
KCNU 021725Z 0218/0318 36008KT P6SM SCT015 BKN250
      TEMPO 0218/0221 BKN015
     FM022100 03009KT P6SM VCSH SCT030 BKN060
     FM030200 03007KT P6SM SCT060 BKN150
     FM030600 VRB03KT P6SM SCT250=



000
FTUS43 KICT 021725
TAFSLN
TAF
KSLN 021725Z 0218/0318 01009KT P6SM VCTS SCT030 BKN060CB
     FM022300 01007KT P6SM SCT060 BKN150
     FM030000 33008KT P6SM BKN080
     FM030900 VRB03KT P6SM SCT250=



000
FTUS43 KICT 021725
TAFHUT
TAF
KHUT 021725Z 0218/0318 33009KT P6SM VCTS SCT030 BKN060CB
      TEMPO 0218/0221 -TSRA SCT030 BKN060CB
     FM022100 03008KT P6SM SCT060 BKN150
     FM030200 VRB03KT P6SM BKN080
     FM031200 29005KT P6SM SKC=



000
FTUS43 KICT 021725
TAFRSL
TAF
KRSL 021725Z 0218/0318 21007KT P6SM VCTS SCT060CB BKN150
     FM030000 33008KT P6SM BKN080
     FM030900 VRB03KT P6SM SCT250=



000
FTUS43 KICT 021536 AAB
TAFHUT
TAF AMD
KHUT 021536Z 0216/0312 05009KT P6SM VCTS SCT030 BKN060CB
      TEMPO 0216/0220 VRB25G35KT 5SM -TSRA BR SCT030 BKN060CB
     FM022100 03008KT P6SM SCT060 BKN150=



000
FTUS43 KICT 021536 AAB
TAFHUT
TAF AMD
KHUT 021536Z 0216/0312 05009KT P6SM VCTS SCT030 BKN060CB
      TEMPO 0216/0220 VRB25G35KT 5SM -TSRA BR SCT030 BKN060CB
     FM022100 03008KT P6SM SCT060 BKN150=



000
FTUS43 KICT 021452 AAB
TAFRSL
TAF AMD
KRSL 021452Z 0215/0312 35014KT P6SM VCTS SCT030 BKN060CB
      TEMPO 0215/0216 VRB20G30KT 4SM +TSRA BKN030CB
     FM021800 36007KT P6SM SCT060 BKN150=



000
FTUS43 KICT 021452 AAB
TAFRSL
TAF AMD
KRSL 021452Z 0215/0312 35014KT P6SM VCTS SCT030 BKN060CB
      TEMPO 0215/0216 VRB20G30KT 4SM +TSRA BKN030CB
     FM021800 36007KT P6SM SCT060 BKN150=



000
FTUS43 KICT 021209 AAA
TAFSLN
TAF AMD
KSLN 021209Z 0212/0312 36006KT P6SM FEW009 SCT015
      TEMPO 0212/0215 5SM BR SCT009 BKN015
     FM021500 01009KT P6SM VCTS SCT030 BKN060CB
      TEMPO 0215/0217 VRB15G25KT 5SM TSRA OVC030CB
     FM021900 01007KT P6SM SCT060 BKN150=



000
FTUS43 KICT 021206 AAA
TAFRSL
TAF AMD
KRSL 021206Z 0212/0312 06006KT P6SM SCT007
      TEMPO 0212/0214 4SM BR BKN007
     FM021400 35014KT P6SM VCTS SCT030 BKN060CB
      TEMPO 0214/0216 VRB20G30KT 4SM +TSRA BKN030CB
     FM021800 36007KT P6SM SCT060 BKN150=



000
FTUS43 KICT 021203 AAA
TAFHUT
TAF AMD
KHUT 021203Z 0212/0312 03006KT P6SM SCT009
      TEMPO 0212/0214 3SM BR BKN009
     FM021500 05009KT P6SM VCTS SCT030 BKN060CB
      TEMPO 0216/0220 -SHRA SCT030 BKN060
     FM022100 03008KT P6SM SCT060 BKN150=



000
FTUS43 KICT 021203 AAA
TAFHUT
TAF AMD
KHUT 021203Z 0212/0312 03006KT P6SM SCT009
      TEMPO 0212/0214 3SM BR BKN009
     FM021500 05009KT P6SM VCTS SCT030 BKN060CB
      TEMPO 0216/0220 -SHRA SCT030 BKN060
     FM022100 03008KT P6SM SCT060 BKN150=



000
FTUS43 KICT 021120
TAFICT
TAF
KICT 021120Z 0212/0312 04006KT P6SM FEW009 SCT015 BKN250
     FM021600 03009KT P6SM VCTS SCT030 BKN060CB
      TEMPO 0217/0221 -SHRA SCT030 BKN060
     FM022200 03008KT P6SM SCT060 BKN150=



000
FTUS43 KICT 021120
TAFSLN
TAF
KSLN 021120Z 0212/0312 07006KT P6SM FEW009 SCT015
      TEMPO 0212/0214 SCT009 BKN015
     FM021400 06009KT P6SM VCTS SCT030 BKN060CB
      TEMPO 0214/0217 VRB15G25KT 5SM TSRA BKN030CB
     FM021900 01007KT P6SM SCT060 BKN150=



000
FTUS43 KICT 021120
TAFCNU
TAF
KCNU 021120Z 0212/0312 03008KT P6SM FEW009 SCT015 BKN250
     FM022000 03009KT P6SM VCSH SCT030 BKN060
     FM030200 03007KT P6SM SCT060 BKN150=



000
FTUS43 KICT 021120
TAFHUT
TAF
KHUT 021120Z 0212/0312 04006KT P6SM FEW009 SCT015 BKN250
     FM021500 05009KT P6SM VCTS SCT030 BKN060CB
      TEMPO 0216/0220 -SHRA SCT030 BKN060
     FM022100 03008KT P6SM SCT060 BKN150=



000
FTUS43 KICT 021120
TAFICT
TAF
KICT 021120Z 0212/0312 04006KT P6SM FEW009 SCT015 BKN250
     FM021600 03009KT P6SM VCTS SCT030 BKN060CB
      TEMPO 0217/0221 -SHRA SCT030 BKN060
     FM022200 03008KT P6SM SCT060 BKN150=



000
FTUS43 KICT 021120
TAFHUT
TAF
KHUT 021120Z 0212/0312 04006KT P6SM FEW009 SCT015 BKN250
     FM021500 05009KT P6SM VCTS SCT030 BKN060CB
      TEMPO 0216/0220 -SHRA SCT030 BKN060
     FM022100 03008KT P6SM SCT060 BKN150=



000
FTUS43 KICT 021120
TAFRSL
TAF
KRSL 021120Z 0212/0312 04006KT P6SM FEW009 SCT015
      TEMPO 0212/0213 SCT009 BKN015
     FM021300 35011KT P6SM VCTS SCT030 BKN060CB
      TEMPO 0213/0216 VRB15G25KT 5SM TSRA BKN030CB
     FM021800 36007KT P6SM SCT060 BKN150=



000
FTUS43 KICT 021120
TAFSLN
TAF
KSLN 021120Z 0212/0312 07006KT P6SM FEW009 SCT015
      TEMPO 0212/0214 SCT009 BKN015
     FM021400 06009KT P6SM VCTS SCT030 BKN060CB
      TEMPO 0214/0217 VRB15G25KT 5SM TSRA BKN030CB
     FM021900 01007KT P6SM SCT060 BKN150=



000
FTUS43 KICT 021120
TAFCNU
TAF
KCNU 021120Z 0212/0312 03008KT P6SM FEW009 SCT015 BKN250
     FM022000 03009KT P6SM VCSH SCT030 BKN060
     FM030200 03007KT P6SM SCT060 BKN150=



000
FTUS43 KICT 021120
TAFRSL
TAF
KRSL 021120Z 0212/0312 04006KT P6SM FEW009 SCT015
      TEMPO 0212/0213 SCT009 BKN015
     FM021300 35011KT P6SM VCTS SCT030 BKN060CB
      TEMPO 0213/0216 VRB15G25KT 5SM TSRA BKN030CB
     FM021800 36007KT P6SM SCT060 BKN150=



000
FTUS43 KICT 020914 AAA
TAFCNU
TAF AMD
KCNU 020914Z 0209/0306 03006KT P6SM BKN250
     FM021030 03006KT P6SM FEW009 SCT015 BKN250
     FM021900 03009KT P6SM VCSH SCT025 BKN060=



000
FTUS43 KICT 020914 AAA
TAFCNU
TAF AMD
KCNU 020914Z 0209/0306 03006KT P6SM BKN250
     FM021030 03006KT P6SM FEW009 SCT015 BKN250
     FM021900 03009KT P6SM VCSH SCT025 BKN060=



000
FTUS43 KICT 020909 AAB
TAFICT
TAF AMD
KICT 020909Z 0209/0306 05006KT P6SM BKN250
     FM021100 05006KT P6SM FEW009 SCT015 BKN250
     FM021600 05009KT P6SM VCSH SCT025 BKN060
     FM030100 VRB04KT P6SM BKN100=



000
FTUS43 KICT 020904 AAA
TAFHUT
TAF AMD
KHUT 020904Z 0209/0306 06006KT P6SM FEW009 SCT015
     FM021500 05009KT P6SM VCSH SCT025 BKN060
     FM030100 VRB03KT P6SM BKN100=



000
FTUS43 KICT 020900 AAA
TAFRSL
TAF AMD
KRSL 020900Z 0209/0306 06006KT P6SM FEW009 SCT015
      TEMPO 0210/0213 SCT009 BKN015
     FM021300 06008KT P6SM VCTS SCT015 BKN060CB
     FM030100 VRB04KT P6SM BKN120=



000
FTUS43 KICT 020900 AAA
TAFRSL
TAF AMD
KRSL 020900Z 0209/0306 06006KT P6SM FEW009 SCT015
      TEMPO 0210/0213 SCT009 BKN015
     FM021300 06008KT P6SM VCTS SCT015 BKN060CB
     FM030100 VRB04KT P6SM BKN120=



000
FTUS43 KICT 020855 AAA
TAFSLN
TAF AMD
KSLN 020855Z 0209/0306 07006KT P6SM FEW009 SCT015
      TEMPO 0209/0213 SCT009 OVC015
     FM021400 06009KT P6SM VCSH SCT015 BKN060
     FM030200 VRB04KT P6SM BKN100=



000
FTUS43 KICT 020855 AAA
TAFSLN
TAF AMD
KSLN 020855Z 0209/0306 07006KT P6SM FEW009 SCT015
      TEMPO 0209/0213 SCT009 OVC015
     FM021400 06009KT P6SM VCSH SCT015 BKN060
     FM030200 VRB04KT P6SM BKN100=



000
FTUS43 KICT 020520
TAFRSL
TAF
KRSL 020520Z 0206/0306 VRB04KT P6SM BKN300
     FM021500 02015G22KT P6SM BKN120
     FM030100 VRB04KT P6SM BKN120=



000
FTUS43 KICT 020520
TAFCNU
TAF
KCNU 020520Z 0206/0306 22014KT P6SM VCTS BKN090CB
     FM020900 27006KT P6SM SCT080 BKN150
     FM021500 01014KT P6SM SCT020 BKN120
     FM030100 04006KT P6SM BKN120=



000
FTUS43 KICT 020520
TAFSLN
TAF
KSLN 020520Z 0206/0306 02008KT P6SM BKN300
     FM020700 VRB04KT P6SM SCT100
     FM021500 01014KT P6SM BKN120
     FM030200 VRB04KT P6SM BKN100=



000
FTUS43 KICT 020520
TAFHUT
TAF
KHUT 020520Z 0206/0306 36008KT P6SM BKN300
     FM021000 01006KT P6SM SCT020 BKN100
     FM021500 02014G20KT P6SM BKN120
     FM022100 VRB03KT P6SM BKN100=



000
FTUS43 KICT 020520
TAFICT
TAF
KICT 020520Z 0206/0306 VRB04KT P6SM SCT100
     FM020800 36008KT P6SM BKN300
     FM021000 34008KT P6SM SCT020 BKN300
     FM021400 02010KT P6SM SCT020 BKN300
     FM021600 01014KT P6SM BKN120
     FM022200 VRB04KT P6SM BKN100=



000
FTUS43 KICT 020236 AAA
TAFCNU
TAF AMD
KCNU 020236Z 0203/0224 22010KT P6SM VCTS BKN090CB
     FM020900 35009KT P6SM BKN025
     FM021500 02014KT P6SM BKN120=



000
FTUS43 KICT 020236 AAA
TAFCNU
TAF AMD
KCNU 020236Z 0203/0224 22010KT P6SM VCTS BKN090CB
     FM020900 35009KT P6SM BKN025
     FM021500 02014KT P6SM BKN120=



000
FTUS43 KICT 020049 AAA
TAFICT
TAF AMD
KICT 020049Z 0201/0224 36009KT P6SM SCT100
     FM020800 34008KT P6SM SCT020
     FM021200 02010KT P6SM SCT020
     FM021600 04010KT P6SM BKN150=



000
FTUS43 KICT 020049 AAA
TAFICT
TAF AMD
KICT 020049Z 0201/0224 36009KT P6SM SCT100
     FM020800 34008KT P6SM SCT020
     FM021200 02010KT P6SM SCT020
     FM021600 04010KT P6SM BKN150=



000
FTUS43 KICT 012342
TAFICT
TAF
KICT 012342Z 0200/0224 27008KT P6SM VCTS FEW050CB BKN150
      TEMPO 0200/0202 -TSRA BKN050CB
     FM020200 36009KT P6SM SCT100
     FM020800 34008KT P6SM SCT020
     FM021200 02010KT P6SM SCT020
     FM021600 04010KT P6SM BKN150=



000
FTUS43 KICT 012342
TAFRSL
TAF
KRSL 012342Z 0200/0224 02007KT P6SM FEW100
     FM020400 VRB04KT P6SM SCT150
     FM021500 02015G22KT P6SM BKN120=



000
FTUS43 KICT 012342
TAFHUT
TAF
KHUT 012342Z 0200/0224 36010KT P6SM SCT100
     FM021000 02010KT P6SM SCT020 BKN100
     FM021500 04015G22KT P6SM BKN120=



000
FTUS43 KICT 012342
TAFSLN
TAF
KSLN 012342Z 0200/0224 02008KT P6SM SCT100
     FM020700 VRB04KT P6SM SCT100
     FM021500 01015G22KT P6SM BKN100=



000
FTUS43 KICT 012342
TAFCNU
TAF
KCNU 012342Z 0200/0224 20013KT P6SM VCTS SCT050CB BKN100
      TEMPO 0200/0203 -TSRA BKN050CB
     FM020300 24010KT P6SM VCTS BKN090CB
     FM020900 35009KT P6SM BKN025
     FM021500 02014KT P6SM BKN120=



000
FTUS43 KICT 012050 AAB
TAFICT
TAF AMD
KICT 012050Z 0121/0218 24008KT P6SM VCSH BKN090
     FM020000 36009KT P6SM SCT100
     FM021200 02010KT P6SM SCT025 BKN100=



000
FTUS43 KICT 012050 AAA
TAFHUT
TAF AMD
KHUT 012050Z 0121/0218 35006KT P6SM SCT100
     FM012300 36010KT P6SM SCT100
     FM021200 02010KT P6SM SCT025 BKN100=



000
FTUS43 KICT 011808 AAA
TAFICT
TAF AMD
KICT 011808Z 0118/0218 23014G20KT P6SM VCSH BKN100
     FM012200 27009KT P6SM VCTS BKN090CB
     FM020100 36009KT P6SM SCT100
     FM021200 02010KT P6SM SCT025 BKN100=



000
FTUS43 KICT 011808 AAA
TAFICT
TAF AMD
KICT 011808Z 0118/0218 23014G20KT P6SM VCSH BKN100
     FM012200 27009KT P6SM VCTS BKN090CB
     FM020100 36009KT P6SM SCT100
     FM021200 02010KT P6SM SCT025 BKN100=



000
FTUS43 KICT 011732
TAFCNU
TAF
KCNU 011732Z 0118/0218 16012KT P6SM VCTS SCT090CB BKN250
     FM012200 20013KT P6SM VCTS SCT050CB BKN100
     FM020300 24010KT P6SM VCTS BKN090CB
     FM020900 35009KT P6SM BKN025=



000
FTUS43 KICT 011732
TAFHUT
TAF
KHUT 011732Z 0118/0218 25011KT P6SM VCTS BKN090CB
     FM012300 36010KT P6SM SCT100
     FM021200 02010KT P6SM SCT025 BKN100=



000
FTUS43 KICT 011732
TAFRSL
TAF
KRSL 011732Z 0118/0218 35014G20KT P6SM SCT100
     FM020000 02007KT P6SM FEW100=



000
FTUS43 KICT 011732
TAFICT
TAF
KICT 011732Z 0118/0218 23014G20KT P6SM SCT100 BKN250
     FM012200 27009KT P6SM VCTS BKN090CB
     FM020100 36009KT P6SM SCT100
     FM021200 02010KT P6SM SCT025 BKN100=



000
FTUS43 KICT 011732
TAFSLN
TAF
KSLN 011732Z 0118/0218 27010KT P6SM VCSH BKN100
     FM012000 35012KT P6SM SCT100
     FM020300 01008KT P6SM SCT100=



000
FTUS43 KICT 011607 AAA
TAFCNU
TAF AMD
KCNU 011607Z 0116/0212 16012KT P6SM SCT100 BKN200
     FM020000 20014G19KT P6SM VCTS SCT080CB BKN150
     FM020900 29011KT P6SM SCT080 BKN150=



000
FTUS43 KICT 011323 AAA
TAFSLN
TAF AMD
KSLN 011323Z 0113/0212 15009KT P6SM VCTS SCT090CB BKN200
     FM011800 36012KT P6SM SCT100 BKN200=



000
FTUS43 KICT 011323 AAA
TAFSLN
TAF AMD
KSLN 011323Z 0113/0212 15009KT P6SM VCTS SCT090CB BKN200
     FM011800 36012KT P6SM SCT100 BKN200=



000
FTUS43 KICT 011134
TAFICT
TAF
KICT 011134Z 0112/0212 22011KT P6SM SCT100 BKN200
     FM011500 22017G24KT P6SM SCT100 BKN200
     FM020000 25011KT P6SM SCT100
     FM020300 36011KT P6SM SCT100=



000
FTUS43 KICT 011134
TAFRSL
TAF
KRSL 011134Z 0112/0212 26013KT P6SM SCT100 BKN200
     FM011500 36012KT P6SM SCT100 BKN200
     FM020100 02006KT P6SM SCT250=



000
FTUS43 KICT 011134
TAFCNU
TAF
KCNU 011134Z 0112/0212 22011KT P6SM SCT100 BKN200
     FM011600 22016G23KT P6SM SCT100 BKN200
     FM020000 20014G19KT P6SM VCTS SCT080CB BKN150
     FM020900 29011KT P6SM SCT080 BKN150=



000
FTUS43 KICT 011134
TAFSLN
TAF
KSLN 011134Z 0112/0212 25009KT P6SM SCT100 BKN200
     FM011800 36012KT P6SM SCT100 BKN200=



000
FTUS43 KICT 011134
TAFHUT
TAF
KHUT 011134Z 0112/0212 23011KT P6SM SCT100 BKN200
     FM011500 23017G24KT P6SM SCT100 BKN200
     FM012200 26014KT P6SM SCT100
     FM020000 36011KT P6SM SCT100=



000
FTUS43 KICT 011134
TAFRSL
TAF
KRSL 011134Z 0112/0212 26013KT P6SM SCT100 BKN200
     FM011500 36012KT P6SM SCT100 BKN200
     FM020100 02006KT P6SM SCT250=



000
FTUS43 KICT 011134
TAFCNU
TAF
KCNU 011134Z 0112/0212 22011KT P6SM SCT100 BKN200
     FM011600 22016G23KT P6SM SCT100 BKN200
     FM020000 20014G19KT P6SM VCTS SCT080CB BKN150
     FM020900 29011KT P6SM SCT080 BKN150=



000
FTUS43 KICT 011134
TAFSLN
TAF
KSLN 011134Z 0112/0212 25009KT P6SM SCT100 BKN200
     FM011800 36012KT P6SM SCT100 BKN200=



000
FTUS43 KICT 011134
TAFICT
TAF
KICT 011134Z 0112/0212 22011KT P6SM SCT100 BKN200
     FM011500 22017G24KT P6SM SCT100 BKN200
     FM020000 25011KT P6SM SCT100
     FM020300 36011KT P6SM SCT100=



000
FTUS43 KICT 011134
TAFHUT
TAF
KHUT 011134Z 0112/0212 23011KT P6SM SCT100 BKN200
     FM011500 23017G24KT P6SM SCT100 BKN200
     FM012200 26014KT P6SM SCT100
     FM020000 36011KT P6SM SCT100=



    US Dept of Commerce
    National Oceanic and Atmospheric Administration
    National Weather Service
    1325 East West Highway
    Silver Spring, MD 20910
    Page Author: NWS Internet Services Team
Disclaimer
Information Quality
Credits
Glossary
Privacy Policy
Freedom of Information Act (FOIA)
About Us
Career Opportunities